WIF520 ENZV-ENBR
Flight info
| Callsign | WIF520 |
|---|---|
| Flight time | 0h 40m |
| Altitude | 16000 |
| Route | ALUVA |
| Aircraft | DH8D/M-SDFGRY/SB1 |
Departure
| Time | 2026-04-20 15:15 |
|---|---|
| Airport | Stavanger Airport, Sola (ENZV) |
Arrival
| Time | 2026-04-20 15:56 |
|---|---|
| Airport | Bergen Airport, Flesland (ENBR) |
| Time | Latitude | Longitude | Altitude | Speed | Heading |
|---|---|---|---|---|---|
| 2026-04-20 14:40 | 58.88411 | 5.62884 | 32 ft | 0 kts | 225° |
| 2026-04-20 15:05 | 58.88411 | 5.62883 | 32 ft | 0 kts | 225° |
| 2026-04-20 15:05 | 58.88414 | 5.62889 | 32 ft | 2 kts | 226° |
| 2026-04-20 15:06 | 58.88425 | 5.62911 | 33 ft | 2 kts | 226° |
| 2026-04-20 15:06 | 58.88437 | 5.62934 | 34 ft | 2 kts | 226° |
| 2026-04-20 15:06 | 58.88448 | 5.62956 | 34 ft | 2 kts | 226° |
| 2026-04-20 15:06 | 58.88459 | 5.62978 | 35 ft | 2 kts | 226° |
| 2026-04-20 15:07 | 58.88470 | 5.62999 | 35 ft | 1 kts | 225° |
| 2026-04-20 15:07 | 58.88470 | 5.63000 | 35 ft | 0 kts | 225° |
| 2026-04-20 15:09 | 58.88466 | 5.62992 | 35 ft | 1 kts | 225° |
| 2026-04-20 15:09 | 58.88448 | 5.62968 | 34 ft | 2 kts | 187° |
| 2026-04-20 15:09 | 58.88440 | 5.62982 | 34 ft | 1 kts | 114° |
| 2026-04-20 15:10 | 58.88437 | 5.63011 | 35 ft | 5 kts | 98° |
| 2026-04-20 15:10 | 58.88432 | 5.63101 | 35 ft | 6 kts | 108° |
| 2026-04-20 15:10 | 58.88422 | 5.63187 | 35 ft | 6 kts | 84° |
| 2026-04-20 15:10 | 58.88430 | 5.63250 | 36 ft | 3 kts | 73° |
| 2026-04-20 15:11 | 58.88448 | 5.63355 | 36 ft | 9 kts | 70° |
| 2026-04-20 15:11 | 58.88490 | 5.63424 | 36 ft | 8 kts | 6° |
| 2026-04-20 15:11 | 58.88632 | 5.63425 | 35 ft | 30 kts | 2° |
| 2026-04-20 15:11 | 58.88800 | 5.63418 | 32 ft | 19 kts | 0° |
| 2026-04-20 15:12 | 58.88847 | 5.63417 | 31 ft | 18 kts | 358° |
| 2026-04-20 15:12 | 58.88966 | 5.63416 | 31 ft | 14 kts | 2° |
| 2026-04-20 15:12 | 58.89099 | 5.63411 | 29 ft | 23 kts | 355° |
| 2026-04-20 15:12 | 58.89256 | 5.63401 | 28 ft | 16 kts | 358° |
| 2026-04-20 15:13 | 58.89326 | 5.63428 | 26 ft | 13 kts | 40° |
| 2026-04-20 15:13 | 58.89344 | 5.63541 | 22 ft | 5 kts | 88° |
| 2026-04-20 15:13 | 58.89345 | 5.63617 | 20 ft | 6 kts | 88° |
| 2026-04-20 15:13 | 58.89341 | 5.63706 | 19 ft | 6 kts | 99° |
| 2026-04-20 15:14 | 58.89308 | 5.63732 | 20 ft | 5 kts | 178° |
| 2026-04-20 15:14 | 58.89297 | 5.63733 | 20 ft | 0 kts | 179° |
| 2026-04-20 15:14 | 58.89156 | 5.63740 | 23 ft | 66 kts | 181° |
| 2026-04-20 15:15 | 58.88359 | 5.63760 | 36 ft | 149 kts | 178° |
| 2026-04-20 15:15 | 58.87227 | 5.63649 | 525 ft | 168 kts | 187° |
| 2026-04-20 15:15 | 58.85969 | 5.62945 | 1115 ft | 192 kts | 197° |
| 2026-04-20 15:15 | 58.84658 | 5.61767 | 1834 ft | 207 kts | 206° |
| 2026-04-20 15:16 | 58.83285 | 5.59966 | 2473 ft | 227 kts | 218° |
| 2026-04-20 15:16 | 58.81899 | 5.57912 | 3087 ft | 240 kts | 210° |
| 2026-04-20 15:16 | 58.80276 | 5.56402 | 3904 ft | 238 kts | 195° |
| 2026-04-20 15:16 | 58.78544 | 5.55827 | 4607 ft | 246 kts | 185° |
| 2026-04-20 15:17 | 58.76602 | 5.55461 | 5404 ft | 248 kts | 181° |
| 2026-04-20 15:17 | 58.74632 | 5.55162 | 6383 ft | 247 kts | 181° |
| 2026-04-20 15:17 | 58.72726 | 5.54845 | 7255 ft | 250 kts | 181° |
| 2026-04-20 15:17 | 58.70848 | 5.53954 | 7811 ft | 272 kts | 205° |
| 2026-04-20 15:18 | 58.69372 | 5.51080 | 8823 ft | 273 kts | 239° |
| 2026-04-20 15:18 | 58.68867 | 5.47089 | 9619 ft | 278 kts | 273° |
| 2026-04-20 15:18 | 58.69617 | 5.43294 | 10358 ft | 274 kts | 314° |
| 2026-04-20 15:18 | 58.71182 | 5.40957 | 11057 ft | 271 kts | 339° |
| 2026-04-20 15:19 | 58.73084 | 5.40304 | 11808 ft | 264 kts | 6° |
| 2026-04-20 15:19 | 58.75048 | 5.40530 | 12587 ft | 266 kts | 10° |
| 2026-04-20 15:19 | 58.77091 | 5.41007 | 13201 ft | 268 kts | 13° |
| 2026-04-20 15:19 | 58.79186 | 5.41688 | 13772 ft | 270 kts | 15° |
| 2026-04-20 15:20 | 58.81336 | 5.42528 | 14343 ft | 273 kts | 17° |
| 2026-04-20 15:20 | 58.83440 | 5.43446 | 14851 ft | 276 kts | 18° |
| 2026-04-20 15:20 | 58.85653 | 5.44483 | 15364 ft | 278 kts | 18° |
| 2026-04-20 15:20 | 58.87951 | 5.44773 | 15815 ft | 289 kts | 351° |
| 2026-04-20 15:21 | 58.89991 | 5.43207 | 15992 ft | 306 kts | 338° |
| 2026-04-20 15:21 | 58.92067 | 5.41244 | 16020 ft | 320 kts | 337° |
| 2026-04-20 15:21 | 58.94251 | 5.39170 | 16018 ft | 329 kts | 337° |
| 2026-04-20 15:21 | 58.96468 | 5.37074 | 16040 ft | 337 kts | 337° |
| 2026-04-20 15:22 | 58.98892 | 5.34796 | 16000 ft | 342 kts | 336° |
| 2026-04-20 15:22 | 59.01319 | 5.32523 | 16047 ft | 345 kts | 336° |
| 2026-04-20 15:22 | 59.03722 | 5.30278 | 16040 ft | 348 kts | 336° |
| 2026-04-20 15:22 | 59.06055 | 5.28095 | 16293 ft | 342 kts | 336° |
| 2026-04-20 15:23 | 59.08360 | 5.25941 | 16451 ft | 341 kts | 336° |
| 2026-04-20 15:23 | 59.10699 | 5.23760 | 16496 ft | 345 kts | 336° |
| 2026-04-20 15:23 | 59.13014 | 5.21600 | 16485 ft | 346 kts | 336° |
| 2026-04-20 15:23 | 59.15321 | 5.19444 | 16473 ft | 349 kts | 336° |
| 2026-04-20 15:24 | 59.17636 | 5.17279 | 16457 ft | 349 kts | 336° |
| 2026-04-20 15:24 | 59.20059 | 5.15008 | 16479 ft | 350 kts | 336° |
| 2026-04-20 15:24 | 59.22572 | 5.12649 | 16466 ft | 349 kts | 336° |
| 2026-04-20 15:24 | 59.24994 | 5.10373 | 16477 ft | 349 kts | 336° |
| 2026-04-20 15:25 | 59.27388 | 5.08121 | 16499 ft | 350 kts | 336° |
| 2026-04-20 15:25 | 59.29961 | 5.05697 | 16479 ft | 349 kts | 336° |
| 2026-04-20 15:25 | 59.32446 | 5.03351 | 16478 ft | 349 kts | 336° |
| 2026-04-20 15:25 | 59.34964 | 5.00971 | 16480 ft | 349 kts | 336° |
| 2026-04-20 15:26 | 59.37521 | 4.98550 | 16497 ft | 348 kts | 336° |
| 2026-04-20 15:26 | 59.40197 | 4.96809 | 16506 ft | 343 kts | 354° |
| 2026-04-20 15:26 | 59.42765 | 4.96351 | 16480 ft | 343 kts | 358° |
| 2026-04-20 15:26 | 59.45371 | 4.95945 | 16463 ft | 344 kts | 358° |
| 2026-04-20 15:27 | 59.48038 | 4.95533 | 16452 ft | 343 kts | 358° |
| 2026-04-20 15:27 | 59.50605 | 4.95131 | 16496 ft | 343 kts | 358° |
| 2026-04-20 15:27 | 59.53286 | 4.94706 | 16477 ft | 345 kts | 358° |
| 2026-04-20 15:27 | 59.55816 | 4.94301 | 16483 ft | 345 kts | 358° |
| 2026-04-20 15:28 | 59.58483 | 4.93871 | 16476 ft | 345 kts | 358° |
| 2026-04-20 15:28 | 59.61123 | 4.93442 | 16481 ft | 345 kts | 358° |
| 2026-04-20 15:28 | 59.63665 | 4.93026 | 16492 ft | 345 kts | 358° |
| 2026-04-20 15:28 | 59.66214 | 4.92609 | 16496 ft | 345 kts | 358° |
| 2026-04-20 15:29 | 59.68766 | 4.92210 | 16482 ft | 344 kts | 358° |
| 2026-04-20 15:29 | 59.71375 | 4.91828 | 16479 ft | 344 kts | 358° |
| 2026-04-20 15:29 | 59.73958 | 4.91390 | 16485 ft | 344 kts | 357° |
| 2026-04-20 15:29 | 59.76526 | 4.90949 | 16491 ft | 344 kts | 358° |
| 2026-04-20 15:30 | 59.79066 | 4.90493 | 16493 ft | 345 kts | 356° |
| 2026-04-20 15:30 | 59.81690 | 4.89770 | 16506 ft | 345 kts | 354° |
| 2026-04-20 15:30 | 59.84199 | 4.89021 | 16492 ft | 346 kts | 354° |
| 2026-04-20 15:30 | 59.86710 | 4.88278 | 16487 ft | 347 kts | 354° |
| 2026-04-20 15:31 | 59.89224 | 4.87539 | 16475 ft | 342 kts | 354° |
| 2026-04-20 15:31 | 59.91697 | 4.86810 | 16477 ft | 335 kts | 354° |
| 2026-04-20 15:31 | 59.94181 | 4.86085 | 16473 ft | 329 kts | 354° |
| 2026-04-20 15:31 | 59.96547 | 4.85398 | 16483 ft | 326 kts | 354° |
| 2026-04-20 15:32 | 59.98935 | 4.84708 | 16247 ft | 327 kts | 354° |
| 2026-04-20 15:32 | 60.01341 | 4.84009 | 15849 ft | 328 kts | 354° |
| 2026-04-20 15:32 | 60.03734 | 4.83314 | 15389 ft | 322 kts | 354° |
| 2026-04-20 15:32 | 60.06016 | 4.82642 | 14951 ft | 312 kts | 354° |
| 2026-04-20 15:33 | 60.08245 | 4.81988 | 14543 ft | 303 kts | 354° |
| 2026-04-20 15:33 | 60.10465 | 4.81344 | 14139 ft | 300 kts | 354° |
| 2026-04-20 15:33 | 60.12533 | 4.80749 | 13743 ft | 299 kts | 354° |
| 2026-04-20 15:33 | 60.14691 | 4.80127 | 13344 ft | 298 kts | 354° |
| 2026-04-20 15:34 | 60.16928 | 4.79479 | 12915 ft | 295 kts | 354° |
| 2026-04-20 15:34 | 60.19129 | 4.78839 | 12490 ft | 292 kts | 354° |
| 2026-04-20 15:34 | 60.21419 | 4.78173 | 12063 ft | 288 kts | 354° |
| 2026-04-20 15:34 | 60.23480 | 4.77573 | 11651 ft | 287 kts | 354° |
| 2026-04-20 15:35 | 60.25579 | 4.76962 | 11257 ft | 284 kts | 355° |
| 2026-04-20 15:35 | 60.27657 | 4.76354 | 10867 ft | 280 kts | 355° |
| 2026-04-20 15:35 | 60.29780 | 4.75731 | 10469 ft | 273 kts | 354° |
| 2026-04-20 15:35 | 60.31825 | 4.75129 | 10078 ft | 268 kts | 355° |
| 2026-04-20 15:36 | 60.33973 | 4.74502 | 9351 ft | 270 kts | 354° |
| 2026-04-20 15:36 | 60.35942 | 4.73918 | 8877 ft | 257 kts | 354° |
| 2026-04-20 15:36 | 60.37798 | 4.73365 | 8512 ft | 251 kts | 355° |
| 2026-04-20 15:36 | 60.39608 | 4.72841 | 8153 ft | 252 kts | 355° |
| 2026-04-20 15:37 | 60.41445 | 4.71944 | 7769 ft | 244 kts | 344° |
| 2026-04-20 15:37 | 60.43166 | 4.70679 | 7420 ft | 232 kts | 343° |
| 2026-04-20 15:37 | 60.44754 | 4.69494 | 7077 ft | 220 kts | 343° |
| 2026-04-20 15:37 | 60.46292 | 4.68643 | 6765 ft | 214 kts | 358° |
| 2026-04-20 15:38 | 60.47837 | 4.68573 | 6481 ft | 208 kts | 4° |
| 2026-04-20 15:38 | 60.49451 | 4.68614 | 6169 ft | 207 kts | 3° |
| 2026-04-20 15:38 | 60.50959 | 4.68635 | 5862 ft | 199 kts | 4° |
| 2026-04-20 15:38 | 60.52410 | 4.69139 | 5570 ft | 198 kts | 20° |
| 2026-04-20 15:39 | 60.53872 | 4.70243 | 5265 ft | 200 kts | 22° |
| 2026-04-20 15:39 | 60.55315 | 4.71361 | 4960 ft | 202 kts | 22° |
| 2026-04-20 15:39 | 60.56730 | 4.72475 | 4667 ft | 203 kts | 25° |
| 2026-04-20 15:39 | 60.57952 | 4.74115 | 4380 ft | 203 kts | 40° |
| 2026-04-20 15:40 | 60.59074 | 4.76083 | 4176 ft | 200 kts | 41° |
| 2026-04-20 15:40 | 60.60160 | 4.78003 | 4090 ft | 196 kts | 41° |
| 2026-04-20 15:40 | 60.61211 | 4.79889 | 4047 ft | 191 kts | 44° |
| 2026-04-20 15:40 | 60.61999 | 4.82176 | 4031 ft | 190 kts | 60° |
| 2026-04-20 15:41 | 60.62634 | 4.84656 | 4027 ft | 192 kts | 62° |
| 2026-04-20 15:41 | 60.63305 | 4.87294 | 4022 ft | 193 kts | 62° |
| 2026-04-20 15:41 | 60.63759 | 4.90108 | 4000 ft | 197 kts | 89° |
| 2026-04-20 15:41 | 60.63126 | 4.92644 | 4008 ft | 203 kts | 139° |
| 2026-04-20 15:42 | 60.61769 | 4.93869 | 4026 ft | 208 kts | 160° |
| 2026-04-20 15:42 | 60.60332 | 4.94747 | 4024 ft | 212 kts | 161° |
| 2026-04-20 15:42 | 60.58857 | 4.95626 | 4019 ft | 216 kts | 161° |
| 2026-04-20 15:42 | 60.57361 | 4.96516 | 4017 ft | 219 kts | 161° |
| 2026-04-20 15:43 | 60.55859 | 4.97412 | 4021 ft | 221 kts | 161° |
| 2026-04-20 15:43 | 60.54307 | 4.98340 | 4018 ft | 223 kts | 161° |
| 2026-04-20 15:43 | 60.52628 | 4.99358 | 4013 ft | 224 kts | 161° |
| 2026-04-20 15:43 | 60.50954 | 5.00376 | 4014 ft | 225 kts | 161° |
| 2026-04-20 15:44 | 60.49282 | 5.01389 | 4005 ft | 226 kts | 161° |
| 2026-04-20 15:44 | 60.47570 | 5.02424 | 4004 ft | 225 kts | 161° |
| 2026-04-20 15:44 | 60.45852 | 5.03464 | 4005 ft | 226 kts | 161° |
| 2026-04-20 15:44 | 60.44178 | 5.04477 | 4003 ft | 226 kts | 161° |
| 2026-04-20 15:45 | 60.42518 | 5.05485 | 4019 ft | 227 kts | 161° |
| 2026-04-20 15:45 | 60.40876 | 5.06301 | 4004 ft | 229 kts | 170° |
| 2026-04-20 15:45 | 60.39135 | 5.06657 | 4001 ft | 229 kts | 173° |
| 2026-04-20 15:45 | 60.37407 | 5.07014 | 4003 ft | 229 kts | 172° |
| 2026-04-20 15:46 | 60.35718 | 5.07403 | 4005 ft | 230 kts | 172° |
| 2026-04-20 15:46 | 60.34053 | 5.07769 | 4008 ft | 230 kts | 172° |
| 2026-04-20 15:46 | 60.32423 | 5.08185 | 4008 ft | 231 kts | 170° |
| 2026-04-20 15:46 | 60.30780 | 5.08662 | 4009 ft | 232 kts | 169° |
| 2026-04-20 15:47 | 60.29125 | 5.09151 | 4009 ft | 232 kts | 169° |
| 2026-04-20 15:47 | 60.27468 | 5.09647 | 4009 ft | 233 kts | 169° |
| 2026-04-20 15:47 | 60.25800 | 5.10150 | 4010 ft | 233 kts | 169° |
| 2026-04-20 15:47 | 60.24102 | 5.10664 | 3989 ft | 233 kts | 169° |
| 2026-04-20 15:48 | 60.22379 | 5.11191 | 4006 ft | 236 kts | 169° |
| 2026-04-20 15:48 | 60.20527 | 5.11759 | 4001 ft | 237 kts | 169° |
| 2026-04-20 15:48 | 60.18795 | 5.12291 | 4006 ft | 239 kts | 169° |
| 2026-04-20 15:48 | 60.17088 | 5.12813 | 4018 ft | 240 kts | 169° |
| 2026-04-20 15:49 | 60.15338 | 5.13347 | 4010 ft | 242 kts | 169° |
| 2026-04-20 15:49 | 60.13602 | 5.13876 | 4006 ft | 241 kts | 169° |
| 2026-04-20 15:49 | 60.11823 | 5.14420 | 4006 ft | 238 kts | 169° |
| 2026-04-20 15:49 | 60.10222 | 5.15436 | 3978 ft | 230 kts | 143° |
| 2026-04-20 15:50 | 60.09312 | 5.18115 | 3958 ft | 219 kts | 100° |
| 2026-04-20 15:50 | 60.09498 | 5.21123 | 3737 ft | 203 kts | 69° |
| 2026-04-20 15:50 | 60.10086 | 5.23878 | 3463 ft | 198 kts | 65° |
| 2026-04-20 15:50 | 60.10806 | 5.26405 | 3060 ft | 197 kts | 46° |
| 2026-04-20 15:51 | 60.12063 | 5.27344 | 2992 ft | 177 kts | 359° |
| 2026-04-20 15:51 | 60.13341 | 5.27049 | 2926 ft | 172 kts | 354° |
| 2026-04-20 15:51 | 60.14566 | 5.26731 | 2821 ft | 170 kts | 353° |
| 2026-04-20 15:51 | 60.15761 | 5.26349 | 2685 ft | 165 kts | 352° |
| 2026-04-20 15:52 | 60.16913 | 5.25968 | 2557 ft | 157 kts | 352° |
| 2026-04-20 15:52 | 60.18020 | 5.25609 | 2326 ft | 157 kts | 353° |
| 2026-04-20 15:52 | 60.19119 | 5.25253 | 2067 ft | 159 kts | 352° |
| 2026-04-20 15:53 | 60.21315 | 5.24517 | 1558 ft | 147 kts | 352° |
| 2026-04-20 15:53 | 60.22297 | 5.24179 | 1322 ft | 133 kts | 351° |
| 2026-04-20 15:53 | 60.23193 | 5.23883 | 1141 ft | 122 kts | 351° |
| 2026-04-20 15:53 | 60.24043 | 5.23606 | 990 ft | 116 kts | 350° |
| 2026-04-20 15:54 | 60.24841 | 5.23338 | 856 ft | 112 kts | 351° |
| 2026-04-20 15:54 | 60.25637 | 5.23077 | 709 ft | 113 kts | 348° |
| 2026-04-20 15:54 | 60.26445 | 5.22798 | 564 ft | 117 kts | 346° |
| 2026-04-20 15:54 | 60.27266 | 5.22486 | 404 ft | 117 kts | 346° |
| 2026-04-20 15:55 | 60.28097 | 5.22223 | 208 ft | 115 kts | 346° |
| 2026-04-20 15:55 | 60.28886 | 5.21974 | 163 ft | 107 kts | 348° |
| 2026-04-20 15:55 | 60.29607 | 5.21719 | 144 ft | 97 kts | 349° |
| 2026-04-20 15:55 | 60.30119 | 5.21551 | 155 ft | 55 kts | 346° |
| 2026-04-20 15:56 | 60.30386 | 5.21473 | 163 ft | 22 kts | 23° |
| 2026-04-20 15:56 | 60.30441 | 5.21709 | 170 ft | 16 kts | 98° |
| 2026-04-20 15:56 | 60.30354 | 5.21797 | 166 ft | 15 kts | 172° |
| 2026-04-20 15:56 | 60.30240 | 5.21833 | 161 ft | 16 kts | 170° |
| 2026-04-20 15:57 | 60.30162 | 5.21859 | 158 ft | 0 kts | 171° |
| 2026-04-20 15:58 | 60.30126 | 5.21871 | 157 ft | 13 kts | 170° |
| 2026-04-20 15:58 | 60.29996 | 5.21914 | 152 ft | 18 kts | 168° |
| 2026-04-20 15:58 | 60.29871 | 5.21956 | 152 ft | 16 kts | 169° |
| 2026-04-20 15:59 | 60.29755 | 5.21994 | 150 ft | 16 kts | 169° |
| 2026-04-20 15:59 | 60.29636 | 5.22035 | 150 ft | 15 kts | 169° |
| 2026-04-20 15:59 | 60.29535 | 5.22068 | 153 ft | 13 kts | 170° |
| 2026-04-20 15:59 | 60.29445 | 5.22102 | 155 ft | 11 kts | 169° |
| 2026-04-20 16:00 | 60.29366 | 5.22127 | 157 ft | 10 kts | 169° |
| 2026-04-20 16:00 | 60.29277 | 5.22157 | 160 ft | 22 kts | 171° |
| 2026-04-20 16:00 | 60.29160 | 5.22196 | 163 ft | 12 kts | 169° |
| 2026-04-20 16:00 | 60.29075 | 5.22224 | 165 ft | 11 kts | 171° |
| 2026-04-20 16:01 | 60.29002 | 5.22247 | 167 ft | 8 kts | 171° |
| 2026-04-20 16:01 | 60.28946 | 5.22268 | 167 ft | 7 kts | 167° |
| 2026-04-20 16:01 | 60.28892 | 5.22290 | 168 ft | 9 kts | 169° |
| 2026-04-20 16:01 | 60.28834 | 5.22307 | 168 ft | 7 kts | 173° |
| 2026-04-20 16:02 | 60.28769 | 5.22323 | 167 ft | 10 kts | 172° |
| 2026-04-20 16:02 | 60.28693 | 5.22364 | 166 ft | 11 kts | 139° |
| 2026-04-20 16:02 | 60.28667 | 5.22500 | 168 ft | 9 kts | 109° |
| 2026-04-20 16:02 | 60.28670 | 5.22639 | 169 ft | 10 kts | 76° |
| 2026-04-20 16:03 | 60.28653 | 5.22750 | 170 ft | 7 kts | 140° |
| 2026-04-20 16:03 | 60.28650 | 5.22839 | 171 ft | 5 kts | 79° |
| 2026-04-20 16:03 | 60.28654 | 5.22885 | 173 ft | 1 kts | 80° |
| 2026-04-20 16:03 | 60.28657 | 5.22921 | 175 ft | 0 kts | 80° |